Time;durP1;ratioP1;P1;durP2;ratioP2;P2;SDS_P1;SDS_P2;PMS_P1;PMS_P2;Temp;Humidity;BMP_temperature;BMP_pressure;BME280_temperature;BME280_humidity;BME280_pressure;Samples;Min_cycle;Max_cycle;Signal;HPM_P1;HPM_P2
2023/07/02 00:00:59;;;;;;;9.30;4.75;;;16.20;99.90;;;;;;4925792;29;20113;-84
2023/07/02 00:03:25;;;;;;;9.50;4.72;;;16.20;99.90;;;;;;4919917;29;20126;-84
2023/07/02 00:05:54;;;;;;;13.38;5.15;;;16.20;99.90;;;;;;4919763;29;20170;-84
2023/07/02 00:08:21;;;;;;;10.60;4.72;;;16.10;99.90;;;;;;4885433;29;20800;-84
2023/07/02 00:10:47;;;;;;;8.93;5.05;;;16.10;99.90;;;;;;4914127;29;20416;-84
2023/07/02 00:13:13;;;;;;;7.70;4.93;;;16.10;99.90;;;;;;4912509;29;20036;-84
2023/07/02 00:15:39;;;;;;;8.18;5.15;;;16.10;99.90;;;;;;4918681;29;20055;-84
2023/07/02 00:18:05;;;;;;;7.80;4.68;;;16.00;99.90;;;;;;4908223;29;20519;-84
2023/07/02 00:20:34;;;;;;;11.48;4.82;;;16.00;99.90;;;;;;4903634;29;20433;-84
2023/07/02 00:23:01;;;;;;;8.90;5.20;;;16.00;99.90;;;;;;4903809;29;20147;-84
2023/07/02 00:25:26;;;;;;;9.40;5.43;;;16.00;99.90;;;;;;4888497;29;20091;-84
2023/07/02 00:27:52;;;;;;;10.15;5.18;;;16.00;99.90;;;;;;4903530;29;20047;-84
2023/07/02 00:30:18;;;;;;;11.57;5.63;;;16.00;99.90;;;;;;4887948;29;20047;-85
2023/07/02 00:32:43;;;;;;;10.82;5.38;;;16.00;99.90;;;;;;4919235;29;20044;-84
2023/07/02 00:35:09;;;;;;;10.68;5.65;;;16.10;99.90;;;;;;4869082;29;20071;-85
2023/07/02 00:37:35;;;;;;;11.57;5.47;;;16.00;99.90;;;;;;4934856;29;20055;-84
2023/07/02 00:40:01;;;;;;;8.05;5.15;;;16.00;99.90;;;;;;4888193;29;20130;-84
2023/07/02 00:42:29;;;;;;;12.38;5.97;;;16.10;99.90;;;;;;4903260;29;20039;-85
2023/07/02 00:44:56;;;;;;;11.32;5.65;;;16.00;99.90;;;;;;4888777;29;20039;-85
2023/07/02 00:47:23;;;;;;;12.50;6.32;;;16.00;99.90;;;;;;4887882;29;20090;-85
2023/07/02 00:49:50;;;;;;;13.05;6.28;;;16.00;99.90;;;;;;4908502;29;20097;-85
2023/07/02 00:52:20;;;;;;;13.80;6.18;;;16.00;99.90;;;;;;4885189;29;20130;-84
2023/07/02 00:54:45;;;;;;;11.13;5.75;;;15.90;99.90;;;;;;4939410;28;20060;-84
2023/07/02 00:57:11;;;;;;;11.88;6.72;;;15.90;99.90;;;;;;4903905;29;20047;-84
2023/07/02 00:59:38;;;;;;;13.45;6.55;;;15.80;99.90;;;;;;4917147;29;20052;-85
2023/07/02 01:02:05;;;;;;;12.70;6.78;;;15.80;99.90;;;;;;4888266;29;20058;-84
2023/07/02 01:04:30;;;;;;;15.02;6.35;;;15.70;99.90;;;;;;4901442;29;20043;-84
2023/07/02 01:06:59;;;;;;;10.88;6.50;;;15.70;99.90;;;;;;4924969;29;20044;-84
2023/07/02 01:09:26;;;;;;;12.98;6.72;;;15.70;99.90;;;;;;4938245;29;20054;-83
2023/07/02 01:12:02;;;;;;;11.73;6.38;;;15.60;99.90;;;;;;4916950;29;20134;-84
2023/07/02 01:14:31;;;;;;;11.98;5.88;;;15.60;99.90;;;;;;4916701;29;20451;-85
2023/07/02 01:16:58;;;;;;;13.40;5.93;;;15.60;99.90;;;;;;4902098;29;20039;-84
2023/07/02 01:19:51;;;;;;;13.52;5.88;;;15.60;99.90;;;;;;4918226;29;20046;-84
2023/07/02 01:22:19;;;;;;;15.43;6.85;;;15.50;99.90;;;;;;4917323;29;20036;-84
2023/07/02 01:24:48;;;;;;;13.10;6.65;;;15.40;99.90;;;;;;4918167;29;20638;-84
2023/07/02 01:27:15;;;;;;;15.98;7.10;;;15.40;99.90;;;;;;4902217;29;20040;-84
2023/07/02 01:29:42;;;;;;;11.98;6.50;;;15.30;99.90;;;;;;4886660;29;20044;-84
2023/07/02 01:32:08;;;;;;;17.33;7.45;;;15.30;99.90;;;;;;4901961;29;20043;-84
2023/07/02 01:34:34;;;;;;;14.38;6.97;;;15.20;99.90;;;;;;4886568;29;20047;-84
2023/07/02 01:37:01;;;;;;;17.55;6.93;;;15.20;99.90;;;;;;4886624;29;20054;-84
2023/07/02 01:39:26;;;;;;;19.48;8.30;;;15.20;99.90;;;;;;4901874;29;20047;-84
2023/07/02 01:42:07;;;;;;;14.43;6.88;;;15.10;99.90;;;;;;4901358;29;20047;-84
2023/07/02 01:44:32;;;;;;;13.55;7.18;;;15.10;99.90;;;;;;4902228;29;20501;-84
2023/07/02 01:46:58;;;;;;;18.00;7.90;;;15.10;99.90;;;;;;4902584;29;20027;-84
2023/07/02 01:49:25;;;;;;;16.48;7.90;;;15.10;99.90;;;;;;4923157;29;20473;-84
2023/07/02 01:51:51;;;;;;;13.50;6.95;;;15.10;99.90;;;;;;4902170;29;20039;-85
2023/07/02 01:54:22;;;;;;;17.17;7.57;;;15.00;99.90;;;;;;4899746;29;20055;-84
2023/07/02 01:56:48;;;;;;;18.30;7.97;;;14.90;99.90;;;;;;4902506;29;20391;-84
2023/07/02 01:59:15;;;;;;;19.90;8.18;;;14.90;99.90;;;;;;4886470;29;20040;-84
2023/07/02 02:01:41;;;;;;;22.70;8.65;;;14.90;99.90;;;;;;4917791;29;20513;-84
2023/07/02 02:04:07;;;;;;;18.55;7.97;;;14.80;99.90;;;;;;4901687;29;20118;-84
2023/07/02 02:06:33;;;;;;;20.13;7.68;;;14.80;99.90;;;;;;4940760;29;20039;-84
2023/07/02 02:09:00;;;;;;;17.63;7.90;;;14.80;99.90;;;;;;4901727;29;20262;-84
2023/07/02 02:11:26;;;;;;;17.67;7.90;;;14.80;99.90;;;;;;4901514;29;20046;-85
2023/07/02 02:13:51;;;;;;;16.98;7.70;;;14.80;99.90;;;;;;4903418;29;20035;-84
2023/07/02 02:16:17;;;;;;;17.63;8.00;;;14.80;99.90;;;;;;4902678;29;20039;-84
2023/07/02 02:18:43;;;;;;;18.65;8.45;;;14.70;99.90;;;;;;4900877;29;20044;-85
2023/07/02 02:21:09;;;;;;;18.52;8.27;;;14.70;99.90;;;;;;4925066;29;20036;-84
2023/07/02 02:23:35;;;;;;;20.13;8.48;;;14.70;99.90;;;;;;4925881;29;20478;-84
2023/07/02 02:26:00;;;;;;;19.45;8.82;;;14.70;99.90;;;;;;4884874;29;20504;-85
2023/07/02 02:28:26;;;;;;;17.75;7.93;;;14.70;99.90;;;;;;4917205;29;20042;-85
2023/07/02 02:30:52;;;;;;;21.30;8.38;;;14.60;99.90;;;;;;4901632;29;20560;-85
2023/07/02 02:33:17;;;;;;;21.67;9.02;;;14.60;99.90;;;;;;4885787;29;20103;-84
2023/07/02 02:35:43;;;;;;;19.10;7.85;;;14.60;99.90;;;;;;4891860;29;20130;-85
2023/07/02 02:38:09;;;;;;;19.75;8.20;;;14.60;99.90;;;;;;4922574;29;20382;-84
2023/07/02 02:40:34;;;;;;;15.63;7.60;;;14.50;99.90;;;;;;4905779;29;20040;-84
2023/07/02 02:43:00;;;;;;;21.77;8.63;;;14.50;99.90;;;;;;4907225;29;20040;-84
2023/07/02 02:45:26;;;;;;;15.10;8.10;;;14.50;99.90;;;;;;4891271;29;20474;-85
2023/07/02 02:47:52;;;;;;;23.00;8.23;;;14.40;99.90;;;;;;4891319;29;20804;-84
2023/07/02 02:50:17;;;;;;;22.52;9.25;;;14.40;99.90;;;;;;4923970;29;20036;-84
2023/07/02 02:52:43;;;;;;;16.25;8.57;;;14.40;99.90;;;;;;4922905;29;20127;-85
2023/07/02 02:55:10;;;;;;;18.02;8.93;;;14.30;99.90;;;;;;4888743;29;20067;-84
2023/07/02 02:57:36;;;;;;;17.65;8.65;;;14.30;99.90;;;;;;4920440;29;20044;-83
2023/07/02 03:00:02;;;;;;;22.25;8.73;;;14.20;99.90;;;;;;4938907;29;20043;-84
2023/07/02 03:02:28;;;;;;;23.23;8.70;;;14.20;99.90;;;;;;4923771;29;20433;-85
2023/07/02 03:04:54;;;;;;;18.95;8.75;;;14.10;99.90;;;;;;4876117;29;20032;-84
2023/07/02 03:07:20;;;;;;;17.95;8.40;;;14.20;99.90;;;;;;4907645;29;20035;-84
2023/07/02 03:09:45;;;;;;;18.98;8.35;;;14.20;99.90;;;;;;4907469;29;20134;-84
2023/07/02 03:12:11;;;;;;;20.92;8.77;;;14.10;99.90;;;;;;4907493;29;20035;-84
2023/07/02 03:14:37;;;;;;;22.38;9.57;;;14.20;99.90;;;;;;4891897;29;20055;-84
2023/07/02 03:17:03;;;;;;;23.13;9.35;;;14.10;99.90;;;;;;4907385;29;20504;-84
2023/07/02 03:19:28;;;;;;;19.70;8.35;;;14.10;99.90;;;;;;4935062;29;20118;-84
2023/07/02 03:21:54;;;;;;;18.65;8.68;;;14.10;99.90;;;;;;4931108;29;20074;-84
2023/07/02 03:24:20;;;;;;;18.83;8.35;;;14.00;99.90;;;;;;4906726;29;20044;-85
2023/07/02 03:26:46;;;;;;;26.95;10.05;;;14.00;99.90;;;;;;4908339;29;20043;-84
2023/07/02 03:29:11;;;;;;;19.95;9.43;;;14.00;99.90;;;;;;4892007;29;20051;-84
2023/07/02 03:31:37;;;;;;;21.95;9.45;;;14.00;99.90;;;;;;4907457;29;20406;-84
2023/07/02 03:34:09;;;;;;;23.27;8.55;;;14.00;99.90;;;;;;4906606;29;20036;-84
2023/07/02 03:36:35;;;;;;;20.05;8.65;;;14.00;99.90;;;;;;4923044;29;20122;-84
2023/07/02 03:39:01;;;;;;;20.13;9.27;;;14.00;99.90;;;;;;4891879;29;20496;-84
2023/07/02 03:41:27;;;;;;;20.85;9.15;;;14.00;99.90;;;;;;4933439;29;20088;-84
2023/07/02 03:43:53;;;;;;;23.33;9.95;;;14.00;99.90;;;;;;4907302;29;20043;-84
2023/07/02 03:46:19;;;;;;;20.38;9.18;;;14.10;99.90;;;;;;4924362;29;20040;-84
2023/07/02 03:48:44;;;;;;;21.40;9.73;;;14.10;99.90;;;;;;4873274;29;20051;-84
2023/07/02 03:51:12;;;;;;;22.95;9.20;;;14.20;99.90;;;;;;4922906;29;20054;-83
2023/07/02 03:53:38;;;;;;;21.05;9.38;;;14.30;99.90;;;;;;4927796;29;20076;-84
2023/07/02 03:56:04;;;;;;;24.38;9.52;;;14.30;99.90;;;;;;4888383;29;20083;-85
2023/07/02 03:58:30;;;;;;;23.65;10.00;;;14.40;99.90;;;;;;4904091;29;20047;-84
2023/07/02 04:00:55;;;;;;;21.73;9.27;;;14.30;99.90;;;;;;4904053;29;20105;-84
2023/07/02 04:03:21;;;;;;;20.83;9.05;;;14.40;99.90;;;;;;4888102;29;20126;-85
2023/07/02 04:05:47;;;;;;;21.38;9.13;;;14.30;99.90;;;;;;4903705;29;20040;-84
2023/07/02 04:08:12;;;;;;;24.70;10.30;;;14.30;99.90;;;;;;4902385;29;20048;-84
2023/07/02 04:10:38;;;;;;;24.70;9.27;;;14.30;99.90;;;;;;4888852;29;20401;-84
2023/07/02 04:13:04;;;;;;;24.75;9.70;;;14.30;99.90;;;;;;4888449;29;20066;-84
2023/07/02 04:15:30;;;;;;;20.98;9.10;;;14.30;99.90;;;;;;4888279;29;20051;-84
2023/07/02 04:17:56;;;;;;;21.15;9.68;;;14.30;99.90;;;;;;4888541;29;20063;-84
2023/07/02 04:20:22;;;;;;;24.67;9.45;;;14.30;99.90;;;;;;4930048;29;20040;-84
2023/07/02 04:22:47;;;;;;;20.75;9.65;;;14.40;99.90;;;;;;4904003;29;20036;-84
2023/07/02 04:25:15;;;;;;;22.15;9.18;;;14.30;99.90;;;;;;4903722;29;20117;-84
2023/07/02 04:27:44;;;;;;;22.95;9.40;;;14.40;99.90;;;;;;4934936;29;20118;-84
2023/07/02 04:30:11;;;;;;;24.73;9.13;;;14.40;99.90;;;;;;4919200;29;20389;-84
2023/07/02 04:32:39;;;;;;;21.52;9.45;;;14.50;99.90;;;;;;4887678;29;20054;-84
2023/07/02 04:35:08;;;;;;;24.30;9.32;;;14.60;99.90;;;;;;4926348;29;20047;-84
2023/07/02 04:37:34;;;;;;;20.17;9.73;;;14.70;99.90;;;;;;4908223;29;20406;-84
2023/07/02 04:40:00;;;;;;;17.02;8.98;;;14.70;99.90;;;;;;4933139;29;20083;-84
2023/07/02 04:42:27;;;;;;;26.42;9.27;;;14.70;99.90;;;;;;4903329;29;20429;-84
2023/07/02 04:44:56;;;;;;;20.80;9.23;;;14.70;99.90;;;;;;4913811;29;20062;-84
2023/07/02 04:47:22;;;;;;;23.92;10.02;;;14.70;99.90;;;;;;4913218;29;20487;-84
2023/07/02 04:49:47;;;;;;;22.40;9.63;;;14.80;99.90;;;;;;4902752;29;20124;-85
2023/07/02 04:52:13;;;;;;;21.38;9.07;;;14.90;99.90;;;;;;4908175;29;20771;-84
2023/07/02 04:54:39;;;;;;;20.98;9.80;;;15.10;99.90;;;;;;4902267;29;20500;-84
2023/07/02 04:57:04;;;;;;;22.80;9.43;;;15.00;99.90;;;;;;4943491;28;20047;-85
2023/07/02 04:59:30;;;;;;;21.50;9.00;;;15.10;99.90;;;;;;4870071;29;20104;-84
2023/07/02 05:01:56;;;;;;;22.17;10.48;;;15.00;99.90;;;;;;4902476;29;20035;-84
2023/07/02 05:04:21;;;;;;;21.75;8.82;;;15.00;99.90;;;;;;4918485;29;20379;-84
2023/07/02 05:06:47;;;;;;;19.98;9.00;;;14.90;99.90;;;;;;4902590;29;20118;-83
2023/07/02 05:09:13;;;;;;;23.45;9.55;;;14.90;99.90;;;;;;4934571;29;20040;-84
2023/07/02 05:11:38;;;;;;;23.92;10.77;;;14.90;99.90;;;;;;4903086;29;20044;-84
2023/07/02 05:14:04;;;;;;;21.75;9.25;;;14.90;99.90;;;;;;4902906;29;20044;-85
2023/07/02 05:16:30;;;;;;;20.23;8.95;;;14.90;99.90;;;;;;4902962;29;20130;-85
2023/07/02 05:18:56;;;;;;;19.92;8.50;;;14.90;99.90;;;;;;4887134;29;20497;-84
2023/07/02 05:21:22;;;;;;;20.95;9.23;;;15.00;99.90;;;;;;4903037;29;20556;-84
2023/07/02 05:23:48;;;;;;;24.75;9.15;;;15.00;99.90;;;;;;4902569;29;20047;-84
2023/07/02 05:26:14;;;;;;;22.50;9.35;;;15.10;99.90;;;;;;4918173;29;20143;-84
2023/07/02 05:28:40;;;;;;;20.17;9.10;;;15.10;99.90;;;;;;4916173;29;20149;-86
2023/07/02 05:31:05;;;;;;;20.55;9.18;;;15.20;99.90;;;;;;4902630;29;20040;-85
2023/07/02 05:33:33;;;;;;;24.05;9.23;;;15.20;99.90;;;;;;4901775;29;20122;-85
2023/07/02 05:35:59;;;;;;;18.40;8.40;;;15.20;99.90;;;;;;4939015;29;20401;-85
2023/07/02 05:38:24;;;;;;;18.85;8.68;;;15.20;99.90;;;;;;4883884;29;20075;-85
2023/07/02 05:40:50;;;;;;;26.63;9.95;;;15.30;99.90;;;;;;4902226;29;20044;-85
2023/07/02 05:43:16;;;;;;;22.42;8.90;;;15.40;99.90;;;;;;4917840;29;20040;-84
2023/07/02 05:45:42;;;;;;;26.52;8.88;;;15.50;99.90;;;;;;4902147;29;20047;-84
2023/07/02 05:48:07;;;;;;;17.70;8.70;;;15.60;99.90;;;;;;4902142;29;20142;-84
2023/07/02 05:50:33;;;;;;;20.30;8.07;;;15.60;99.90;;;;;;4933621;29;20042;-84
2023/07/02 05:52:59;;;;;;;24.13;9.10;;;15.70;99.90;;;;;;4933948;29;20054;-84
2023/07/02 05:55:25;;;;;;;21.35;8.65;;;15.90;99.90;;;;;;4886356;29;20047;-87
2023/07/02 05:57:51;;;;;;;20.20;9.45;;;16.00;99.90;;;;;;4901624;29;20052;-85
2023/07/02 06:00:16;;;;;;;21.30;9.40;;;16.10;99.90;;;;;;4917333;29;20044;-84
2023/07/02 06:02:42;;;;;;;23.92;9.43;;;16.10;99.90;;;;;;4917113;29;20047;-84
2023/07/02 06:05:08;;;;;;;21.58;8.48;;;16.20;99.90;;;;;;4915797;29;20040;-84
2023/07/02 06:07:34;;;;;;;24.05;8.27;;;16.40;99.90;;;;;;4944274;29;20102;-85
2023/07/02 06:10:00;;;;;;;21.42;8.15;;;16.40;99.90;;;;;;4900558;29;20043;-84
2023/07/02 06:12:25;;;;;;;20.45;8.40;;;16.50;99.90;;;;;;4901524;29;20040;-86
2023/07/02 06:14:51;;;;;;;22.35;8.48;;;16.60;99.90;;;;;;4901668;29;20700;-87
2023/07/02 06:17:17;;;;;;;19.13;7.90;;;16.70;99.90;;;;;;4917463;29;20103;-86
2023/07/02 06:19:44;;;;;;;20.75;7.55;;;16.80;99.90;;;;;;4901509;29;20044;-86
2023/07/02 06:22:10;;;;;;;16.10;6.85;;;16.80;99.90;;;;;;4932465;29;20501;-86
2023/07/02 06:24:36;;;;;;;17.88;7.35;;;16.80;99.90;;;;;;4917613;29;20047;-85
2023/07/02 06:27:02;;;;;;;14.05;6.82;;;16.70;99.90;;;;;;4886301;29;20548;-85
2023/07/02 06:29:28;;;;;;;18.20;7.85;;;16.70;99.90;;;;;;4918156;29;20118;-87
2023/07/02 06:31:54;;;;;;;18.67;6.72;;;16.70;99.90;;;;;;4927722;29;20090;-84
2023/07/02 06:34:20;;;;;;;21.77;6.97;;;16.70;99.90;;;;;;4886641;29;20043;-84
2023/07/02 06:36:46;;;;;;;15.52;7.30;;;16.80;99.90;;;;;;4883014;29;20482;-84
2023/07/02 06:39:11;;;;;;;19.25;7.13;;;17.00;99.90;;;;;;4914485;29;20075;-83
2023/07/02 06:41:37;;;;;;;14.52;6.70;;;17.20;99.90;;;;;;4917232;29;20099;-84
2023/07/02 06:44:04;;;;;;;16.52;7.93;;;17.20;99.90;;;;;;4888006;29;20441;-85
2023/07/02 06:46:30;;;;;;;16.50;6.70;;;17.10;99.90;;;;;;4917590;29;20040;-84
2023/07/02 06:48:56;;;;;;;24.75;6.97;;;17.00;99.90;;;;;;4917505;29;20127;-84
2023/07/02 06:51:22;;;;;;;24.17;7.57;;;16.90;99.90;;;;;;4917221;29;20043;-85
2023/07/02 06:53:48;;;;;;;21.20;7.63;;;16.70;99.90;;;;;;4916924;29;20044;-87
2023/07/02 06:56:14;;;;;;;15.82;7.80;;;16.50;99.90;;;;;;4908189;29;20043;-85
2023/07/02 06:58:43;;;;;;;18.90;7.57;;;16.30;99.90;;;;;;4924888;29;20059;-86
2023/07/02 07:01:09;;;;;;;17.45;7.28;;;16.20;99.90;;;;;;4949015;29;20047;-85
2023/07/02 07:03:35;;;;;;;14.90;7.22;;;16.10;99.90;;;;;;4922398;29;20043;-84
2023/07/02 07:06:01;;;;;;;16.60;7.53;;;16.20;99.90;;;;;;4920452;29;20167;-86
2023/07/02 07:08:27;;;;;;;18.88;7.40;;;16.50;99.90;;;;;;4902856;29;20122;-84
2023/07/02 07:10:52;;;;;;;17.52;7.28;;;16.80;99.90;;;;;;4904817;29;20047;-84
2023/07/02 07:13:18;;;;;;;17.45;7.55;;;16.90;99.90;;;;;;4884716;29;20031;-86
2023/07/02 07:15:44;;;;;;;17.60;6.88;;;16.90;99.90;;;;;;4885036;29;20398;-87
2023/07/02 07:18:10;;;;;;;15.75;6.85;;;16.90;99.90;;;;;;4931722;29;20040;-88
2023/07/02 07:20:36;;;;;;;13.07;7.35;;;16.80;99.90;;;;;;4900616;29;20442;-85
2023/07/02 07:23:05;;;;;;;16.20;7.05;;;16.80;99.90;;;;;;4904596;29;20040;-84
2023/07/02 07:25:31;;;;;;;16.55;6.75;;;16.70;99.90;;;;;;4887607;29;20043;-84
2023/07/02 07:27:59;;;;;;;14.55;6.70;;;16.60;99.90;;;;;;4875035;29;20044;-84
2023/07/02 07:30:25;;;;;;;11.85;5.90;;;16.60;99.90;;;;;;4918940;29;20095;-84
2023/07/02 07:32:52;;;;;;;12.45;5.45;;;16.60;99.90;;;;;;4937749;29;20579;-83
2023/07/02 07:35:18;;;;;;;13.55;6.53;;;16.60;99.90;;;;;;4920298;29;20047;-84
2023/07/02 07:37:44;;;;;;;14.20;4.95;;;16.70;99.90;;;;;;4920166;29;20046;-84
2023/07/02 07:40:11;;;;;;;10.27;4.97;;;16.90;99.90;;;;;;4885574;29;20586;-85
2023/07/02 07:42:37;;;;;;;10.88;4.72;;;17.20;99.90;;;;;;4951490;29;20039;-85
2023/07/02 07:45:03;;;;;;;11.05;4.15;;;17.50;99.90;;;;;;4904940;29;20050;-87
2023/07/02 07:47:29;;;;;;;8.95;4.25;;;17.60;99.90;;;;;;4919833;29;20039;-85
2023/07/02 07:49:55;;;;;;;12.23;4.18;;;17.90;99.90;;;;;;4904393;29;20150;-88
2023/07/02 07:52:21;;;;;;;10.60;4.13;;;18.00;99.90;;;;;;4873659;29;20119;-85
2023/07/02 07:54:47;;;;;;;12.27;4.43;;;18.10;99.90;;;;;;4888313;29;20094;-84
2023/07/02 07:57:14;;;;;;;10.95;4.38;;;18.00;99.90;;;;;;4926536;29;20579;-85
2023/07/02 07:59:39;;;;;;;11.88;4.07;;;17.90;99.90;;;;;;4904155;29;20528;-84
2023/07/02 08:02:06;;;;;;;11.30;4.25;;;17.70;99.90;;;;;;4904048;29;20094;-86
2023/07/02 08:04:31;;;;;;;8.77;3.90;;;17.50;99.90;;;;;;4888177;29;20047;-84
2023/07/02 08:06:57;;;;;;;8.43;4.05;;;17.40;99.90;;;;;;4904177;29;20347;-86
2023/07/02 08:09:26;;;;;;;5.97;3.63;;;17.30;99.90;;;;;;4888804;29;20042;-86
2023/07/02 08:11:51;;;;;;;11.70;4.32;;;17.30;99.90;;;;;;4888441;29;20047;-84
2023/07/02 08:14:18;;;;;;;9.75;3.70;;;17.50;99.90;;;;;;4903599;29;20107;-84
2023/07/02 08:16:44;;;;;;;9.98;4.55;;;17.60;99.90;;;;;;4918897;29;20485;-87
2023/07/02 08:19:10;;;;;;;11.05;4.30;;;17.70;99.90;;;;;;4905773;29;20481;-85
2023/07/02 08:21:36;;;;;;;11.27;3.92;;;17.60;99.90;;;;;;4895528;29;20178;-85
2023/07/02 08:24:03;;;;;;;12.35;4.40;;;17.40;99.90;;;;;;4903503;29;20047;-86
2023/07/02 08:26:29;;;;;;;11.48;4.18;;;17.30;99.90;;;;;;4911924;29;20043;-83
2023/07/02 08:28:54;;;;;;;10.48;4.22;;;17.20;99.90;;;;;;4872370;29;20036;-84
2023/07/02 08:31:20;;;;;;;9.82;4.03;;;17.30;99.90;;;;;;4902298;29;20067;-86
2023/07/02 08:33:46;;;;;;;9.05;4.00;;;17.60;99.90;;;;;;4929513;29;20042;-85
2023/07/02 08:36:13;;;;;;;9.63;3.97;;;17.70;99.90;;;;;;4902840;29;20053;-85
2023/07/02 08:38:41;;;;;;;14.85;4.10;;;17.70;99.90;;;;;;4919366;29;20042;-86
2023/07/02 08:41:08;;;;;;;11.88;4.22;;;17.80;99.90;;;;;;4888491;29;20083;-84
2023/07/02 08:43:35;;;;;;;8.35;3.85;;;18.00;99.90;;;;;;4919282;29;20126;-82
2023/07/02 08:46:01;;;;;;;12.02;3.67;;;18.00;99.90;;;;;;4919391;29;20036;-85
2023/07/02 08:48:29;;;;;;;11.60;3.80;;;17.90;99.90;;;;;;4903445;29;20067;-85
2023/07/02 08:50:55;;;;;;;11.18;3.40;;;17.90;99.90;;;;;;4903829;29;20051;-84
2023/07/02 08:53:25;;;;;;;9.23;4.47;;;17.80;99.90;;;;;;4884440;29;20056;-86
2023/07/02 08:55:51;;;;;;;8.77;3.80;;;17.70;99.90;;;;;;4922951;29;20127;-86
2023/07/02 08:58:17;;;;;;;11.00;3.97;;;17.50;99.90;;;;;;4919388;29;20082;-86
2023/07/02 09:01:09;;;;;;;8.98;3.90;;;17.40;99.90;;;;;;4929490;29;20050;-84
2023/07/02 09:03:38;;;;;;;12.20;4.28;;;17.30;99.90;;;;;;4884553;29;20402;-85
2023/07/02 09:06:08;;;;;;;9.23;4.15;;;17.10;99.90;;;;;;4909201;29;20134;-85
2023/07/02 09:08:35;;;;;;;8.48;4.30;;;17.10;99.90;;;;;;4916089;29;20047;-84
2023/07/02 09:11:11;;;;;;;9.60;3.88;;;17.50;99.90;;;;;;4918829;29;20457;-84
2023/07/02 09:13:52;;;;;;;9.40;4.03;;;17.80;99.90;;;;;;4888327;29;20048;-85
2023/07/02 09:16:29;;;;;;;8.45;4.13;;;17.80;99.90;;;;;;4904046;29;20371;-86
2023/07/02 09:19:04;;;;;;;10.73;4.20;;;17.70;99.90;;;;;;4920535;29;20048;-83
2023/07/02 09:21:47;;;;;;;10.38;4.75;;;17.50;99.90;;;;;;4910628;29;20039;-85
2023/07/02 09:24:21;;;;;;;12.05;4.60;;;17.30;99.90;;;;;;4915946;29;20109;-83
2023/07/02 09:26:51;;;;;;;9.15;5.22;;;17.10;99.90;;;;;;4881555;29;20463;-85
2023/07/02 09:29:31;;;;;;;10.88;4.68;;;16.90;99.90;;;;;;4941998;29;20047;-87
2023/07/02 09:32:03;;;;;;;11.57;4.65;;;17.00;99.90;;;;;;4881675;29;20032;-83
2023/07/02 09:34:30;;;;;;;9.93;4.45;;;17.10;99.90;;;;;;4897297;29;20035;-84
2023/07/02 09:36:57;;;;;;;9.90;5.47;;;17.20;99.90;;;;;;4898163;29;20050;-84
2023/07/02 09:39:34;;;;;;;10.10;4.97;;;17.30;99.90;;;;;;4909156;29;20115;-85
2023/07/02 09:42:02;;;;;;;10.60;4.53;;;17.40;99.90;;;;;;4883085;29;20078;-85
2023/07/02 09:44:30;;;;;;;12.55;4.47;;;17.40;99.90;;;;;;4913796;29;20568;-85
2023/07/02 09:47:02;;;;;;;13.65;4.78;;;17.40;99.90;;;;;;4912321;29;20047;-85
2023/07/02 09:49:33;;;;;;;9.75;4.25;;;17.40;99.90;;;;;;4897085;29;20044;-86
2023/07/02 09:52:04;;;;;;;10.63;4.25;;;17.40;99.90;;;;;;4898770;29;20410;-83
2023/07/02 09:54:30;;;;;;;12.93;6.43;;;17.40;99.90;;;;;;4897823;29;20127;-85
2023/07/02 09:56:58;;;;;;;9.32;4.30;;;17.40;99.90;;;;;;4895271;29;20047;-85
2023/07/02 09:59:24;;;;;;;12.88;4.60;;;17.40;99.90;;;;;;4908297;29;20482;-85
2023/07/02 10:01:50;;;;;;;10.30;4.15;;;17.40;99.90;;;;;;4903178;29;20047;-87
2023/07/02 10:04:18;;;;;;;10.13;4.20;;;17.40;99.90;;;;;;4877891;29;20048;-86
2023/07/02 10:06:48;;;;;;;9.98;3.92;;;17.50;99.90;;;;;;4923536;29;20118;-86
2023/07/02 10:09:15;;;;;;;10.52;3.78;;;17.80;99.90;;;;;;4928726;29;20031;-87
2023/07/02 10:11:40;;;;;;;6.93;3.80;;;18.00;99.90;;;;;;4933740;29;20070;-84
2023/07/02 10:14:06;;;;;;;13.30;3.92;;;18.00;99.90;;;;;;4917364;29;20400;-85
2023/07/02 10:16:32;;;;;;;9.55;3.40;;;18.10;99.90;;;;;;4917458;29;20044;-86
2023/07/02 10:19:11;;;;;;;7.50;3.30;;;18.20;99.90;;;;;;4886204;29;20621;-86
2023/07/02 10:21:37;;;;;;;8.90;3.42;;;18.60;99.90;;;;;;4895782;29;20098;-86
2023/07/02 10:24:16;;;;;;;7.07;3.40;;;18.80;99.90;;;;;;4902189;29;20531;-84
2023/07/02 10:26:58;;;;;;;7.90;3.55;;;18.90;99.90;;;;;;4902307;29;20130;-84
2023/07/02 10:29:25;;;;;;;8.85;3.38;;;19.00;99.90;;;;;;4902245;29;20036;-87
2023/07/02 10:31:52;;;;;;;9.13;3.40;;;18.90;99.90;;;;;;4902135;29;20182;-86
2023/07/02 10:34:34;;;;;;;8.35;3.55;;;18.90;99.90;;;;;;4927861;29;20051;-86
2023/07/02 10:37:00;;;;;;;;;;;19.10;99.90;;;;;;4918174;29;20564;-84
2023/07/02 10:39:26;;;;;;;11.82;4.35;;;19.40;99.90;;;;;;4901840;29;19930;-88
2023/07/02 10:41:52;;;;;;;8.07;4.07;;;19.50;99.90;;;;;;4902226;29;20122;-85
2023/07/02 10:44:18;;;;;;;8.70;4.15;;;19.60;99.90;;;;;;4901779;29;20438;-85
2023/07/02 10:46:47;;;;;;;13.07;4.88;;;19.70;99.90;;;;;;4884715;29;20445;-83
2023/07/02 10:49:14;;;;;;;9.38;4.15;;;19.70;99.90;;;;;;4889667;29;20096;-84
2023/07/02 10:51:40;;;;;;;11.55;4.28;;;19.60;99.90;;;;;;4901664;29;20071;-87
2023/07/02 10:54:06;;;;;;;9.23;3.92;;;19.70;99.90;;;;;;4917173;29;20085;-85
2023/07/02 10:56:32;;;;;;;9.52;4.65;;;19.80;99.90;;;;;;4926773;29;20052;-85
2023/07/02 10:58:58;;;;;;;7.05;3.53;;;19.90;99.90;;;;;;4902662;29;20123;-83
2023/07/02 11:01:31;;;;;;;8.60;4.20;;;19.80;99.90;;;;;;4891368;29;20041;-81
2023/07/02 11:04:00;;;;;;;12.15;4.32;;;19.80;99.90;;;;;;4903364;29;20766;-88
2023/07/02 11:06:30;;;;;;;11.40;4.22;;;19.80;99.90;;;;;;4901392;29;20032;-85
2023/07/02 11:08:57;;;;;;;8.63;3.67;;;19.90;99.90;;;;;;4917557;29;20044;-85
2023/07/02 11:11:23;;;;;;;8.27;3.63;;;19.90;99.90;;;;;;4888553;29;20055;-85
2023/07/02 11:13:50;;;;;;;7.85;3.80;;;19.80;99.90;;;;;;4897119;29;20047;-85
2023/07/02 11:16:25;;;;;;;8.90;3.60;;;19.50;99.90;;;;;;4893070;29;20036;-85
2023/07/02 11:19:07;;;;;;;8.80;3.72;;;19.30;99.90;;;;;;4928489;29;20502;-83
2023/07/02 11:21:33;;;;;;;;;;;19.10;99.90;;;;;;4927735;29;20040;-86
2023/07/02 11:24:08;;;;;;;8.27;3.55;;;18.80;99.90;;;;;;4901654;29;19990;-87
2023/07/02 11:26:41;;;;;;;9.73;3.92;;;18.50;99.90;;;;;;4901905;29;20048;-87
2023/07/02 11:29:18;;;;;;;10.20;3.55;;;18.50;99.90;;;;;;4917518;29;20044;-85
2023/07/02 11:31:44;;;;;;;9.57;3.72;;;18.60;99.90;;;;;;4903898;29;20075;-84
2023/07/02 11:34:18;;;;;;;10.10;3.97;;;18.70;99.90;;;;;;4886335;29;20504;-89
2023/07/02 11:36:45;;;;;;;11.02;4.47;;;18.80;99.90;;;;;;4899281;29;20044;-86
2023/07/02 11:39:12;;;;;;;12.00;4.07;;;18.80;99.90;;;;;;4907221;29;20051;-87
2023/07/02 11:41:42;;;;;;;10.73;4.00;;;18.70;99.90;;;;;;4859457;29;20079;-86
2023/07/02 11:44:08;;;;;;;11.15;4.30;;;18.70;99.90;;;;;;4863660;29;20136;-86
2023/07/02 11:46:34;;;;;;;9.32;4.35;;;18.70;99.90;;;;;;4870443;29;20112;-87
2023/07/02 11:49:01;;;;;;;9.93;4.15;;;18.60;99.90;;;;;;4874520;29;20572;-86
2023/07/02 11:51:27;;;;;;;11.52;4.38;;;18.60;99.90;;;;;;4860271;29;20087;-85
2023/07/02 11:53:52;;;;;;;13.57;4.70;;;18.60;99.90;;;;;;4865315;29;20076;-87
2023/07/02 11:56:18;;;;;;;7.25;4.00;;;18.80;99.90;;;;;;4882003;29;20127;-84
2023/07/02 11:58:44;;;;;;;7.68;3.28;;;19.00;99.90;;;;;;4862877;29;20112;-87
2023/07/02 12:01:09;;;;;;;8.20;3.70;;;19.30;99.90;;;;;;4874172;29;20430;-85
2023/07/02 12:03:35;;;;;;;7.28;3.40;;;19.40;99.90;;;;;;4891725;29;20051;-87
2023/07/02 12:06:01;;;;;;;11.02;3.80;;;19.40;99.90;;;;;;4882066;29;20041;-85
2023/07/02 12:08:27;;;;;;;10.07;3.50;;;19.20;99.90;;;;;;4891357;29;20060;-86
2023/07/02 12:10:53;;;;;;;8.27;3.72;;;19.00;99.90;;;;;;4856434;29;20055;-84
2023/07/02 12:13:20;;;;;;;8.88;3.80;;;18.80;99.90;;;;;;4889669;29;20060;-85
2023/07/02 12:15:47;;;;;;;6.40;3.40;;;18.80;99.90;;;;;;4897582;29;20687;-86
2023/07/02 12:18:13;;;;;;;10.95;3.92;;;18.80;99.90;;;;;;4910629;29;20047;-86
2023/07/02 12:20:40;;;;;;;7.82;3.58;;;19.00;99.90;;;;;;4898006;29;20044;-86
2023/07/02 12:23:06;;;;;;;11.45;3.58;;;19.00;99.90;;;;;;4908212;29;20050;-85
2023/07/02 12:25:31;;;;;;;9.75;3.33;;;18.90;99.90;;;;;;4900566;29;20490;-87
2023/07/02 12:27:57;;;;;;;8.25;3.63;;;18.70;99.90;;;;;;4900167;29;20141;-85
2023/07/02 12:30:23;;;;;;;9.18;4.35;;;18.70;99.90;;;;;;4887452;29;20048;-86
2023/07/02 12:32:49;;;;;;;7.60;3.35;;;18.90;99.90;;;;;;4881756;29;20059;-89
2023/07/02 12:35:15;;;;;;;9.20;3.42;;;19.30;99.90;;;;;;4921232;29;20035;-82
2023/07/02 12:37:45;;;;;;;10.13;3.30;;;19.30;99.90;;;;;;4902583;29;20055;-88
2023/07/02 12:43:51;;;;;;;9.35;3.17;;;19.20;99.90;;;;;;4914302;29;20054;-85